sensor_id;sensor_type;location;lat;lon;timestamp;P1;durP1;ratioP1;P2;durP2;ratioP2
18013;SDS011;9132;47.946;10.394;2022-09-09T00:00:44;2.50;;;1.43;;
18013;SDS011;9132;47.946;10.394;2022-09-09T00:03:14;3.33;;;1.77;;
18013;SDS011;9132;47.946;10.394;2022-09-09T00:05:44;2.60;;;1.43;;
18013;SDS011;9132;47.946;10.394;2022-09-09T00:08:13;2.90;;;1.27;;
18013;SDS011;9132;47.946;10.394;2022-09-09T00:10:41;3.60;;;1.50;;
18013;SDS011;9132;47.946;10.394;2022-09-09T00:13:11;1.43;;;1.33;;
18013;SDS011;9132;47.946;10.394;2022-09-09T00:15:42;1.70;;;1.50;;
18013;SDS011;9132;47.946;10.394;2022-09-09T00:18:13;1.93;;;1.70;;
18013;SDS011;9132;47.946;10.394;2022-09-09T00:20:42;3.33;;;1.30;;
18013;SDS011;9132;47.946;10.394;2022-09-09T00:23:11;1.83;;;1.50;;
18013;SDS011;9132;47.946;10.394;2022-09-09T00:25:40;1.97;;;1.40;;
18013;SDS011;9132;47.946;10.394;2022-09-09T00:28:10;1.70;;;1.23;;
18013;SDS011;9132;47.946;10.394;2022-09-09T00:30:39;3.30;;;1.70;;
18013;SDS011;9132;47.946;10.394;2022-09-09T00:33:10;2.23;;;1.77;;
18013;SDS011;9132;47.946;10.394;2022-09-09T00:35:40;3.77;;;1.67;;
18013;SDS011;9132;47.946;10.394;2022-09-09T00:38:10;2.37;;;1.53;;
18013;SDS011;9132;47.946;10.394;2022-09-09T00:40:38;2.00;;;1.60;;
18013;SDS011;9132;47.946;10.394;2022-09-09T00:43:25;2.53;;;1.63;;
18013;SDS011;9132;47.946;10.394;2022-09-09T00:45:59;2.20;;;1.77;;
18013;SDS011;9132;47.946;10.394;2022-09-09T00:48:30;3.43;;;1.53;;
18013;SDS011;9132;47.946;10.394;2022-09-09T00:51:02;1.80;;;1.63;;
18013;SDS011;9132;47.946;10.394;2022-09-09T00:53:37;2.20;;;1.57;;
18013;SDS011;9132;47.946;10.394;2022-09-09T00:56:09;2.20;;;1.40;;
18013;SDS011;9132;47.946;10.394;2022-09-09T00:58:37;1.73;;;1.40;;
18013;SDS011;9132;47.946;10.394;2022-09-09T01:01:04;2.33;;;1.50;;
18013;SDS011;9132;47.946;10.394;2022-09-09T01:03:35;2.30;;;1.27;;
18013;SDS011;9132;47.946;10.394;2022-09-09T01:06:02;1.37;;;1.20;;
18013;SDS011;9132;47.946;10.394;2022-09-09T01:08:36;2.90;;;1.60;;
18013;SDS011;9132;47.946;10.394;2022-09-09T01:11:05;2.73;;;1.57;;
18013;SDS011;9132;47.946;10.394;2022-09-09T01:13:36;2.93;;;1.23;;
18013;SDS011;9132;47.946;10.394;2022-09-09T01:16:03;3.33;;;1.47;;
18013;SDS011;9132;47.946;10.394;2022-09-09T01:18:32;3.83;;;1.40;;
18013;SDS011;9132;47.946;10.394;2022-09-09T01:21:03;2.80;;;1.60;;
18013;SDS011;9132;47.946;10.394;2022-09-09T01:23:37;2.13;;;1.20;;
18013;SDS011;9132;47.946;10.394;2022-09-09T01:28:48;1.70;;;1.30;;
18013;SDS011;9132;47.946;10.394;2022-09-09T01:31:17;2.43;;;1.70;;
18013;SDS011;9132;47.946;10.394;2022-09-09T01:33:44;2.43;;;1.50;;
18013;SDS011;9132;47.946;10.394;2022-09-09T01:36:12;3.97;;;1.63;;
18013;SDS011;9132;47.946;10.394;2022-09-09T01:38:39;2.63;;;1.40;;
18013;SDS011;9132;47.946;10.394;2022-09-09T01:41:06;3.00;;;1.80;;
18013;SDS011;9132;47.946;10.394;2022-09-09T01:43:32;2.90;;;1.30;;
18013;SDS011;9132;47.946;10.394;2022-09-09T01:46:00;2.63;;;1.50;;
18013;SDS011;9132;47.946;10.394;2022-09-09T01:48:27;4.30;;;1.60;;
18013;SDS011;9132;47.946;10.394;2022-09-09T01:50:54;3.33;;;1.60;;
18013;SDS011;9132;47.946;10.394;2022-09-09T01:53:20;1.83;;;1.23;;
18013;SDS011;9132;47.946;10.394;2022-09-09T01:55:49;3.33;;;1.60;;
18013;SDS011;9132;47.946;10.394;2022-09-09T01:58:22;2.83;;;1.60;;
18013;SDS011;9132;47.946;10.394;2022-09-09T02:00:54;3.93;;;1.80;;
18013;SDS011;9132;47.946;10.394;2022-09-09T02:03:25;3.47;;;2.10;;
18013;SDS011;9132;47.946;10.394;2022-09-09T02:05:55;2.60;;;1.60;;
18013;SDS011;9132;47.946;10.394;2022-09-09T02:08:23;2.23;;;1.87;;
18013;SDS011;9132;47.946;10.394;2022-09-09T02:10:52;2.83;;;1.70;;
18013;SDS011;9132;47.946;10.394;2022-09-09T02:13:20;1.63;;;1.47;;
18013;SDS011;9132;47.946;10.394;2022-09-09T02:15:49;2.53;;;1.60;;
18013;SDS011;9132;47.946;10.394;2022-09-09T02:18:19;3.53;;;1.23;;
18013;SDS011;9132;47.946;10.394;2022-09-09T02:20:49;1.77;;;1.67;;
18013;SDS011;9132;47.946;10.394;2022-09-09T02:23:16;2.10;;;1.37;;
18013;SDS011;9132;47.946;10.394;2022-09-09T02:25:43;1.97;;;1.43;;
18013;SDS011;9132;47.946;10.394;2022-09-09T02:28:11;3.97;;;1.50;;
18013;SDS011;9132;47.946;10.394;2022-09-09T02:30:39;3.13;;;1.40;;
18013;SDS011;9132;47.946;10.394;2022-09-09T02:33:07;2.13;;;1.50;;
18013;SDS011;9132;47.946;10.394;2022-09-09T02:35:35;1.73;;;1.60;;
18013;SDS011;9132;47.946;10.394;2022-09-09T02:38:04;2.27;;;1.70;;
18013;SDS011;9132;47.946;10.394;2022-09-09T02:40:33;3.00;;;1.70;;
18013;SDS011;9132;47.946;10.394;2022-09-09T02:42:59;5.20;;;1.80;;
18013;SDS011;9132;47.946;10.394;2022-09-09T02:45:27;3.00;;;1.80;;
18013;SDS011;9132;47.946;10.394;2022-09-09T02:47:56;2.13;;;1.30;;
18013;SDS011;9132;47.946;10.394;2022-09-09T02:50:25;2.90;;;1.80;;
18013;SDS011;9132;47.946;10.394;2022-09-09T02:53:01;3.40;;;1.57;;
18013;SDS011;9132;47.946;10.394;2022-09-09T02:55:33;2.93;;;1.73;;
18013;SDS011;9132;47.946;10.394;2022-09-09T02:58:02;4.67;;;1.80;;
18013;SDS011;9132;47.946;10.394;2022-09-09T03:00:31;2.20;;;1.87;;
18013;SDS011;9132;47.946;10.394;2022-09-09T03:02:57;1.70;;;1.37;;
18013;SDS011;9132;47.946;10.394;2022-09-09T03:05:24;2.47;;;1.70;;
18013;SDS011;9132;47.946;10.394;2022-09-09T03:07:51;3.23;;;1.50;;
18013;SDS011;9132;47.946;10.394;2022-09-09T03:10:17;1.50;;;1.40;;
18013;SDS011;9132;47.946;10.394;2022-09-09T03:12:45;3.43;;;1.43;;
18013;SDS011;9132;47.946;10.394;2022-09-09T03:15:11;3.10;;;1.60;;
18013;SDS011;9132;47.946;10.394;2022-09-09T03:17:38;2.77;;;1.83;;
18013;SDS011;9132;47.946;10.394;2022-09-09T03:20:05;1.83;;;1.73;;
18013;SDS011;9132;47.946;10.394;2022-09-09T03:22:32;3.17;;;1.60;;
18013;SDS011;9132;47.946;10.394;2022-09-09T03:24:58;1.50;;;1.40;;
18013;SDS011;9132;47.946;10.394;2022-09-09T03:27:25;3.10;;;1.40;;
18013;SDS011;9132;47.946;10.394;2022-09-09T03:29:52;3.20;;;1.40;;
18013;SDS011;9132;47.946;10.394;2022-09-09T03:32:19;2.23;;;1.50;;
18013;SDS011;9132;47.946;10.394;2022-09-09T03:34:47;2.90;;;1.43;;
18013;SDS011;9132;47.946;10.394;2022-09-09T03:37:14;2.30;;;1.40;;
18013;SDS011;9132;47.946;10.394;2022-09-09T03:39:40;2.27;;;1.50;;
18013;SDS011;9132;47.946;10.394;2022-09-09T03:42:07;3.60;;;1.40;;
18013;SDS011;9132;47.946;10.394;2022-09-09T03:44:33;3.33;;;1.70;;
18013;SDS011;9132;47.946;10.394;2022-09-09T03:47:01;4.77;;;1.87;;
18013;SDS011;9132;47.946;10.394;2022-09-09T03:49:27;2.47;;;1.33;;
18013;SDS011;9132;47.946;10.394;2022-09-09T03:51:54;3.53;;;1.73;;
18013;SDS011;9132;47.946;10.394;2022-09-09T03:54:21;1.63;;;1.53;;
18013;SDS011;9132;47.946;10.394;2022-09-09T03:56:47;2.07;;;1.70;;
18013;SDS011;9132;47.946;10.394;2022-09-09T03:59:13;2.73;;;1.40;;
18013;SDS011;9132;47.946;10.394;2022-09-09T04:01:40;1.83;;;1.50;;
18013;SDS011;9132;47.946;10.394;2022-09-09T04:04:08;1.90;;;1.47;;
18013;SDS011;9132;47.946;10.394;2022-09-09T04:06:34;4.17;;;1.63;;
18013;SDS011;9132;47.946;10.394;2022-09-09T04:09:00;1.47;;;1.33;;
18013;SDS011;9132;47.946;10.394;2022-09-09T04:11:28;1.50;;;1.40;;
18013;SDS011;9132;47.946;10.394;2022-09-09T04:13:54;1.83;;;1.40;;
18013;SDS011;9132;47.946;10.394;2022-09-09T04:16:20;4.43;;;1.37;;
18013;SDS011;9132;47.946;10.394;2022-09-09T04:18:47;1.50;;;1.40;;
18013;SDS011;9132;47.946;10.394;2022-09-09T04:21:15;2.17;;;1.50;;
18013;SDS011;9132;47.946;10.394;2022-09-09T04:23:42;2.73;;;1.57;;
18013;SDS011;9132;47.946;10.394;2022-09-09T04:26:08;1.43;;;1.33;;
18013;SDS011;9132;47.946;10.394;2022-09-09T04:28:35;1.83;;;1.43;;
18013;SDS011;9132;47.946;10.394;2022-09-09T04:31:05;3.63;;;1.40;;
18013;SDS011;9132;47.946;10.394;2022-09-09T04:33:32;3.43;;;1.57;;
18013;SDS011;9132;47.946;10.394;2022-09-09T04:35:59;1.30;;;1.20;;
18013;SDS011;9132;47.946;10.394;2022-09-09T04:38:27;5.03;;;1.30;;
18013;SDS011;9132;47.946;10.394;2022-09-09T04:40:53;2.57;;;1.23;;
18013;SDS011;9132;47.946;10.394;2022-09-09T04:43:20;1.73;;;1.40;;
18013;SDS011;9132;47.946;10.394;2022-09-09T04:45:47;3.03;;;1.50;;
18013;SDS011;9132;47.946;10.394;2022-09-09T04:48:14;2.67;;;1.10;;
18013;SDS011;9132;47.946;10.394;2022-09-09T04:50:40;4.43;;;1.67;;
18013;SDS011;9132;47.946;10.394;2022-09-09T04:53:06;1.57;;;1.43;;
18013;SDS011;9132;47.946;10.394;2022-09-09T04:55:34;3.17;;;1.47;;
18013;SDS011;9132;47.946;10.394;2022-09-09T04:58:02;1.80;;;1.30;;
18013;SDS011;9132;47.946;10.394;2022-09-09T05:00:28;3.87;;;1.70;;
18013;SDS011;9132;47.946;10.394;2022-09-09T05:02:55;1.53;;;1.00;;
18013;SDS011;9132;47.946;10.394;2022-09-09T05:05:21;3.23;;;1.40;;
18013;SDS011;9132;47.946;10.394;2022-09-09T05:07:47;4.70;;;1.50;;
18013;SDS011;9132;47.946;10.394;2022-09-09T05:10:14;2.40;;;1.30;;
18013;SDS011;9132;47.946;10.394;2022-09-09T05:12:42;2.60;;;1.00;;
18013;SDS011;9132;47.946;10.394;2022-09-09T05:15:09;1.57;;;1.30;;
18013;SDS011;9132;47.946;10.394;2022-09-09T05:17:36;3.47;;;1.20;;
18013;SDS011;9132;47.946;10.394;2022-09-09T05:20:03;1.40;;;0.80;;
18013;SDS011;9132;47.946;10.394;2022-09-09T05:22:30;3.77;;;1.10;;
18013;SDS011;9132;47.946;10.394;2022-09-09T05:24:56;1.20;;;1.10;;
18013;SDS011;9132;47.946;10.394;2022-09-09T05:27:23;1.53;;;1.00;;
18013;SDS011;9132;47.946;10.394;2022-09-09T05:29:51;2.40;;;0.97;;
18013;SDS011;9132;47.946;10.394;2022-09-09T05:32:17;4.23;;;1.50;;
18013;SDS011;9132;47.946;10.394;2022-09-09T05:34:43;4.63;;;1.10;;
18013;SDS011;9132;47.946;10.394;2022-09-09T05:37:10;3.50;;;1.40;;
18013;SDS011;9132;47.946;10.394;2022-09-09T05:39:36;4.27;;;1.33;;
18013;SDS011;9132;47.946;10.394;2022-09-09T05:42:03;4.47;;;1.60;;
18013;SDS011;9132;47.946;10.394;2022-09-09T05:44:29;2.73;;;1.33;;
18013;SDS011;9132;47.946;10.394;2022-09-09T05:46:57;4.82;;;1.25;;
18013;SDS011;9132;47.946;10.394;2022-09-09T05:49:23;2.43;;;1.30;;
18013;SDS011;9132;47.946;10.394;2022-09-09T05:51:50;2.27;;;1.40;;
18013;SDS011;9132;47.946;10.394;2022-09-09T05:54:16;3.27;;;1.40;;
18013;SDS011;9132;47.946;10.394;2022-09-09T05:56:42;2.70;;;1.40;;
18013;SDS011;9132;47.946;10.394;2022-09-09T05:59:09;2.90;;;1.47;;
18013;SDS011;9132;47.946;10.394;2022-09-09T06:01:36;3.70;;;1.47;;
18013;SDS011;9132;47.946;10.394;2022-09-09T06:04:06;2.23;;;1.10;;
18013;SDS011;9132;47.946;10.394;2022-09-09T06:06:34;4.90;;;1.27;;
18013;SDS011;9132;47.946;10.394;2022-09-09T06:09:02;2.13;;;1.23;;
18013;SDS011;9132;47.946;10.394;2022-09-09T06:11:32;3.77;;;1.30;;
18013;SDS011;9132;47.946;10.394;2022-09-09T06:13:59;2.20;;;1.50;;
18013;SDS011;9132;47.946;10.394;2022-09-09T06:16:26;1.80;;;1.30;;
18013;SDS011;9132;47.946;10.394;2022-09-09T06:18:53;3.17;;;1.50;;
18013;SDS011;9132;47.946;10.394;2022-09-09T06:21:22;3.90;;;1.33;;
18013;SDS011;9132;47.946;10.394;2022-09-09T06:23:48;2.03;;;1.33;;
18013;SDS011;9132;47.946;10.394;2022-09-09T06:26:16;2.83;;;1.40;;
18013;SDS011;9132;47.946;10.394;2022-09-09T06:28:43;3.63;;;1.27;;
18013;SDS011;9132;47.946;10.394;2022-09-09T06:31:11;3.30;;;1.30;;
18013;SDS011;9132;47.946;10.394;2022-09-09T06:33:38;3.50;;;1.10;;
18013;SDS011;9132;47.946;10.394;2022-09-09T06:36:06;2.45;;;1.25;;
18013;SDS011;9132;47.946;10.394;2022-09-09T06:38:34;1.20;;;1.02;;
18013;SDS011;9132;47.946;10.394;2022-09-09T06:41:00;2.50;;;1.13;;
18013;SDS011;9132;47.946;10.394;2022-09-09T06:43:27;1.30;;;0.93;;
18013;SDS011;9132;47.946;10.394;2022-09-09T06:45:54;3.07;;;0.87;;
18013;SDS011;9132;47.946;10.394;2022-09-09T06:48:20;1.33;;;0.90;;
18013;SDS011;9132;47.946;10.394;2022-09-09T06:50:46;3.17;;;1.03;;
18013;SDS011;9132;47.946;10.394;2022-09-09T06:53:15;0.83;;;0.73;;
18013;SDS011;9132;47.946;10.394;2022-09-09T06:55:45;1.03;;;0.87;;
18013;SDS011;9132;47.946;10.394;2022-09-09T06:58:11;2.03;;;0.87;;
18013;SDS011;9132;47.946;10.394;2022-09-09T07:00:37;1.63;;;1.10;;
18013;SDS011;9132;47.946;10.394;2022-09-09T07:03:04;2.47;;;1.00;;
18013;SDS011;9132;47.946;10.394;2022-09-09T07:05:30;2.33;;;1.00;;
18013;SDS011;9132;47.946;10.394;2022-09-09T07:07:56;1.87;;;0.80;;
18013;SDS011;9132;47.946;10.394;2022-09-09T07:10:23;1.80;;;1.08;;
18013;SDS011;9132;47.946;10.394;2022-09-09T07:12:51;4.77;;;1.30;;
18013;SDS011;9132;47.946;10.394;2022-09-09T07:15:18;1.90;;;1.10;;
18013;SDS011;9132;47.946;10.394;2022-09-09T07:17:44;1.30;;;0.90;;
18013;SDS011;9132;47.946;10.394;2022-09-09T07:20:11;2.95;;;1.02;;
18013;SDS011;9132;47.946;10.394;2022-09-09T07:22:37;2.05;;;1.00;;
18013;SDS011;9132;47.946;10.394;2022-09-09T07:25:04;2.10;;;1.00;;
18013;SDS011;9132;47.946;10.394;2022-09-09T07:27:31;1.20;;;0.90;;
18013;SDS011;9132;47.946;10.394;2022-09-09T07:29:58;2.17;;;0.70;;
18013;SDS011;9132;47.946;10.394;2022-09-09T07:32:25;2.00;;;0.80;;
18013;SDS011;9132;47.946;10.394;2022-09-09T07:34:52;2.97;;;0.80;;
18013;SDS011;9132;47.946;10.394;2022-09-09T07:37:18;1.58;;;0.70;;
18013;SDS011;9132;47.946;10.394;2022-09-09T07:39:44;1.80;;;1.10;;
18013;SDS011;9132;47.946;10.394;2022-09-09T07:42:10;2.43;;;0.90;;
18013;SDS011;9132;47.946;10.394;2022-09-09T07:44:38;1.45;;;0.98;;
18013;SDS011;9132;47.946;10.394;2022-09-09T07:47:06;2.80;;;0.95;;
18013;SDS011;9132;47.946;10.394;2022-09-09T07:49:32;3.30;;;0.93;;
18013;SDS011;9132;47.946;10.394;2022-09-09T07:51:59;3.22;;;1.08;;
18013;SDS011;9132;47.946;10.394;2022-09-09T07:54:25;1.75;;;1.02;;
18013;SDS011;9132;47.946;10.394;2022-09-09T07:56:52;1.27;;;0.75;;
18013;SDS011;9132;47.946;10.394;2022-09-09T07:59:19;1.92;;;0.80;;
18013;SDS011;9132;47.946;10.394;2022-09-09T08:01:45;3.17;;;0.70;;
18013;SDS011;9132;47.946;10.394;2022-09-09T08:04:14;3.50;;;0.80;;
18013;SDS011;9132;47.946;10.394;2022-09-09T08:06:42;1.85;;;0.90;;
18013;SDS011;9132;47.946;10.394;2022-09-09T08:09:08;3.53;;;0.90;;
18013;SDS011;9132;47.946;10.394;2022-09-09T08:11:35;1.77;;;0.82;;
18013;SDS011;9132;47.946;10.394;2022-09-09T08:14:01;2.08;;;0.65;;
18013;SDS011;9132;47.946;10.394;2022-09-09T08:16:29;2.85;;;0.98;;
18013;SDS011;9132;47.946;10.394;2022-09-09T08:18:56;2.25;;;0.80;;
18013;SDS011;9132;47.946;10.394;2022-09-09T08:21:24;1.50;;;0.80;;
18013;SDS011;9132;47.946;10.394;2022-09-09T08:23:53;1.88;;;0.70;;
18013;SDS011;9132;47.946;10.394;2022-09-09T08:26:20;1.48;;;0.95;;
18013;SDS011;9132;47.946;10.394;2022-09-09T08:28:48;3.28;;;0.90;;
18013;SDS011;9132;47.946;10.394;2022-09-09T08:31:16;3.25;;;1.00;;
18013;SDS011;9132;47.946;10.394;2022-09-09T08:33:43;1.60;;;0.75;;
18013;SDS011;9132;47.946;10.394;2022-09-09T08:36:11;2.95;;;0.90;;
18013;SDS011;9132;47.946;10.394;2022-09-09T08:38:39;2.10;;;0.87;;
18013;SDS011;9132;47.946;10.394;2022-09-09T08:43:50;1.67;;;1.03;;
18013;SDS011;9132;47.946;10.394;2022-09-09T08:46:25;1.73;;;0.90;;
18013;SDS011;9132;47.946;10.394;2022-09-09T08:48:55;2.63;;;1.43;;
18013;SDS011;9132;47.946;10.394;2022-09-09T08:51:23;1.23;;;0.80;;
18013;SDS011;9132;47.946;10.394;2022-09-09T08:53:52;6.13;;;1.23;;
18013;SDS011;9132;47.946;10.394;2022-09-09T08:56:21;1.75;;;0.90;;
18013;SDS011;9132;47.946;10.394;2022-09-09T08:58:48;2.50;;;1.10;;
18013;SDS011;9132;47.946;10.394;2022-09-09T09:01:18;3.67;;;1.33;;
18013;SDS011;9132;47.946;10.394;2022-09-09T09:03:48;2.70;;;1.00;;
18013;SDS011;9132;47.946;10.394;2022-09-09T09:06:22;5.05;;;1.08;;
18013;SDS011;9132;47.946;10.394;2022-09-09T09:08:55;2.60;;;0.90;;
18013;SDS011;9132;47.946;10.394;2022-09-09T09:11:23;4.00;;;1.10;;
18013;SDS011;9132;47.946;10.394;2022-09-09T09:13:51;2.70;;;1.20;;
18013;SDS011;9132;47.946;10.394;2022-09-09T09:16:20;5.22;;;1.27;;
18013;SDS011;9132;47.946;10.394;2022-09-09T09:18:48;3.42;;;1.00;;
18013;SDS011;9132;47.946;10.394;2022-09-09T09:21:16;3.80;;;1.10;;
18013;SDS011;9132;47.946;10.394;2022-09-09T09:23:48;3.13;;;1.15;;
18013;SDS011;9132;47.946;10.394;2022-09-09T09:26:18;4.25;;;1.27;;
18013;SDS011;9132;47.946;10.394;2022-09-09T09:28:47;3.15;;;1.15;;
18013;SDS011;9132;47.946;10.394;2022-09-09T09:31:13;2.20;;;0.90;;
18013;SDS011;9132;47.946;10.394;2022-09-09T09:33:43;3.10;;;1.00;;
18013;SDS011;9132;47.946;10.394;2022-09-09T09:36:12;1.83;;;0.90;;
18013;SDS011;9132;47.946;10.394;2022-09-09T09:38:50;2.73;;;1.57;;
18013;SDS011;9132;47.946;10.394;2022-09-09T09:41:18;3.20;;;1.10;;
18013;SDS011;9132;47.946;10.394;2022-09-09T09:43:55;5.43;;;1.20;;
18013;SDS011;9132;47.946;10.394;2022-09-09T09:46:21;2.40;;;1.10;;
18013;SDS011;9132;47.946;10.394;2022-09-09T09:48:55;3.00;;;1.10;;
18013;SDS011;9132;47.946;10.394;2022-09-09T09:51:22;2.40;;;0.90;;
18013;SDS011;9132;47.946;10.394;2022-09-09T09:53:49;2.72;;;1.20;;
18013;SDS011;9132;47.946;10.394;2022-09-09T09:56:25;1.90;;;1.00;;
18013;SDS011;9132;47.946;10.394;2022-09-09T09:58:52;2.38;;;1.20;;
18013;SDS011;9132;47.946;10.394;2022-09-09T10:01:20;3.42;;;1.10;;
18013;SDS011;9132;47.946;10.394;2022-09-09T10:03:50;2.55;;;1.10;;
18013;SDS011;9132;47.946;10.394;2022-09-09T10:06:16;3.25;;;1.00;;
18013;SDS011;9132;47.946;10.394;2022-09-09T10:08:44;3.17;;;1.27;;
18013;SDS011;9132;47.946;10.394;2022-09-09T10:11:21;5.38;;;1.38;;
18013;SDS011;9132;47.946;10.394;2022-09-09T10:13:53;2.00;;;1.10;;
18013;SDS011;9132;47.946;10.394;2022-09-09T10:16:27;3.72;;;1.00;;
18013;SDS011;9132;47.946;10.394;2022-09-09T10:18:58;2.90;;;0.90;;
18013;SDS011;9132;47.946;10.394;2022-09-09T10:21:28;2.85;;;0.93;;
18013;SDS011;9132;47.946;10.394;2022-09-09T10:24:04;4.72;;;1.20;;
18013;SDS011;9132;47.946;10.394;2022-09-09T10:26:38;2.92;;;1.17;;
18013;SDS011;9132;47.946;10.394;2022-09-09T10:31:52;2.83;;;1.17;;
18013;SDS011;9132;47.946;10.394;2022-09-09T10:34:25;4.90;;;1.23;;
18013;SDS011;9132;47.946;10.394;2022-09-09T10:36:57;2.58;;;0.98;;
18013;SDS011;9132;47.946;10.394;2022-09-09T10:39:30;3.83;;;1.17;;
18013;SDS011;9132;47.946;10.394;2022-09-09T10:42:01;3.17;;;1.00;;
18013;SDS011;9132;47.946;10.394;2022-09-09T10:44:33;3.72;;;1.08;;
18013;SDS011;9132;47.946;10.394;2022-09-09T10:47:13;2.67;;;1.02;;
18013;SDS011;9132;47.946;10.394;2022-09-09T10:49:47;4.85;;;1.20;;
18013;SDS011;9132;47.946;10.394;2022-09-09T10:52:19;6.85;;;1.73;;
18013;SDS011;9132;47.946;10.394;2022-09-09T10:54:51;3.78;;;1.10;;
18013;SDS011;9132;47.946;10.394;2022-09-09T10:57:24;2.70;;;1.05;;
18013;SDS011;9132;47.946;10.394;2022-09-09T10:59:53;2.35;;;1.08;;
18013;SDS011;9132;47.946;10.394;2022-09-09T11:02:22;3.95;;;1.30;;
18013;SDS011;9132;47.946;10.394;2022-09-09T11:04:53;2.45;;;0.90;;
18013;SDS011;9132;47.946;10.394;2022-09-09T11:07:23;4.00;;;1.20;;
18013;SDS011;9132;47.946;10.394;2022-09-09T11:09:53;3.25;;;0.82;;
18013;SDS011;9132;47.946;10.394;2022-09-09T11:12:23;3.08;;;1.05;;
18013;SDS011;9132;47.946;10.394;2022-09-09T11:14:50;2.70;;;1.20;;
18013;SDS011;9132;47.946;10.394;2022-09-09T11:17:19;2.65;;;1.08;;
18013;SDS011;9132;47.946;10.394;2022-09-09T11:19:46;5.03;;;1.10;;
18013;SDS011;9132;47.946;10.394;2022-09-09T11:22:15;4.10;;;1.10;;
18013;SDS011;9132;47.946;10.394;2022-09-09T11:24:44;3.47;;;1.20;;
18013;SDS011;9132;47.946;10.394;2022-09-09T11:27:13;2.15;;;1.13;;
18013;SDS011;9132;47.946;10.394;2022-09-09T11:29:56;4.05;;;1.17;;
18013;SDS011;9132;47.946;10.394;2022-09-09T11:32:34;3.15;;;1.05;;
18013;SDS011;9132;47.946;10.394;2022-09-09T11:35:09;4.25;;;1.00;;
18013;SDS011;9132;47.946;10.394;2022-09-09T11:37:41;3.28;;;1.00;;
18013;SDS011;9132;47.946;10.394;2022-09-09T11:40:15;2.67;;;0.93;;
18013;SDS011;9132;47.946;10.394;2022-09-09T11:42:43;2.78;;;1.10;;
18013;SDS011;9132;47.946;10.394;2022-09-09T11:45:19;3.25;;;0.82;;
18013;SDS011;9132;47.946;10.394;2022-09-09T11:47:51;2.88;;;0.93;;
18013;SDS011;9132;47.946;10.394;2022-09-09T11:50:27;3.65;;;1.00;;
18013;SDS011;9132;47.946;10.394;2022-09-09T11:53:03;1.60;;;1.00;;
18013;SDS011;9132;47.946;10.394;2022-09-09T11:55:30;3.70;;;1.00;;
18013;SDS011;9132;47.946;10.394;2022-09-09T11:57:58;2.35;;;0.80;;
18013;SDS011;9132;47.946;10.394;2022-09-09T12:00:33;2.35;;;0.95;;
18013;SDS011;9132;47.946;10.394;2022-09-09T12:03:00;2.58;;;1.10;;
18013;SDS011;9132;47.946;10.394;2022-09-09T12:05:34;1.83;;;0.90;;
18013;SDS011;9132;47.946;10.394;2022-09-09T12:08:01;2.95;;;1.25;;
18013;SDS011;9132;47.946;10.394;2022-09-09T12:10:29;4.10;;;1.00;;
18013;SDS011;9132;47.946;10.394;2022-09-09T12:13:07;3.30;;;0.93;;
18013;SDS011;9132;47.946;10.394;2022-09-09T12:15:35;2.22;;;1.00;;
18013;SDS011;9132;47.946;10.394;2022-09-09T12:18:14;3.72;;;0.95;;
18013;SDS011;9132;47.946;10.394;2022-09-09T12:20:40;3.88;;;1.25;;
18013;SDS011;9132;47.946;10.394;2022-09-09T12:23:19;4.78;;;1.30;;
18013;SDS011;9132;47.946;10.394;2022-09-09T12:25:50;2.88;;;1.00;;
18013;SDS011;9132;47.946;10.394;2022-09-09T12:28:19;4.50;;;0.98;;
18013;SDS011;9132;47.946;10.394;2022-09-09T12:30:49;5.05;;;1.30;;
18013;SDS011;9132;47.946;10.394;2022-09-09T12:33:18;4.28;;;1.08;;
18013;SDS011;9132;47.946;10.394;2022-09-09T12:35:45;2.72;;;0.95;;
18013;SDS011;9132;47.946;10.394;2022-09-09T12:38:15;2.83;;;0.80;;
18013;SDS011;9132;47.946;10.394;2022-09-09T12:40:53;1.48;;;0.80;;
18013;SDS011;9132;47.946;10.394;2022-09-09T12:43:20;4.30;;;0.90;;
18013;SDS011;9132;47.946;10.394;2022-09-09T12:45:48;4.22;;;1.00;;
18013;SDS011;9132;47.946;10.394;2022-09-09T12:48:21;2.47;;;0.80;;
18013;SDS011;9132;47.946;10.394;2022-09-09T12:50:50;1.60;;;0.77;;
18013;SDS011;9132;47.946;10.394;2022-09-09T12:53:20;2.35;;;0.90;;
18013;SDS011;9132;47.946;10.394;2022-09-09T12:55:49;3.25;;;1.10;;
18013;SDS011;9132;47.946;10.394;2022-09-09T12:58:16;2.28;;;1.00;;
18013;SDS011;9132;47.946;10.394;2022-09-09T13:00:49;2.63;;;0.95;;
18013;SDS011;9132;47.946;10.394;2022-09-09T13:03:17;4.65;;;1.17;;
18013;SDS011;9132;47.946;10.394;2022-09-09T13:05:45;3.17;;;0.80;;
18013;SDS011;9132;47.946;10.394;2022-09-09T13:08:13;3.63;;;1.30;;
18013;SDS011;9132;47.946;10.394;2022-09-09T13:10:40;2.72;;;1.08;;
18013;SDS011;9132;47.946;10.394;2022-09-09T13:13:11;3.08;;;1.02;;
18013;SDS011;9132;47.946;10.394;2022-09-09T13:15:39;1.80;;;0.90;;
18013;SDS011;9132;47.946;10.394;2022-09-09T13:18:10;2.15;;;0.98;;
18013;SDS011;9132;47.946;10.394;2022-09-09T13:20:38;3.13;;;0.95;;
18013;SDS011;9132;47.946;10.394;2022-09-09T13:23:04;1.50;;;0.98;;
18013;SDS011;9132;47.946;10.394;2022-09-09T13:25:31;2.92;;;1.00;;
18013;SDS011;9132;47.946;10.394;2022-09-09T13:28:00;2.50;;;0.90;;
18013;SDS011;9132;47.946;10.394;2022-09-09T13:30:28;1.67;;;1.00;;
18013;SDS011;9132;47.946;10.394;2022-09-09T13:32:59;3.88;;;1.10;;
18013;SDS011;9132;47.946;10.394;2022-09-09T13:35:28;2.22;;;1.00;;
18013;SDS011;9132;47.946;10.394;2022-09-09T13:37:54;3.03;;;1.02;;
18013;SDS011;9132;47.946;10.394;2022-09-09T13:40:22;2.13;;;1.00;;
18013;SDS011;9132;47.946;10.394;2022-09-09T13:42:51;2.85;;;0.90;;
18013;SDS011;9132;47.946;10.394;2022-09-09T13:45:18;3.95;;;1.05;;
18013;SDS011;9132;47.946;10.394;2022-09-09T13:47:46;2.65;;;1.08;;
18013;SDS011;9132;47.946;10.394;2022-09-09T13:50:20;3.08;;;1.10;;
18013;SDS011;9132;47.946;10.394;2022-09-09T13:52:48;2.88;;;0.90;;
18013;SDS011;9132;47.946;10.394;2022-09-09T13:55:16;4.38;;;1.00;;
18013;SDS011;9132;47.946;10.394;2022-09-09T13:57:49;2.65;;;0.80;;
18013;SDS011;9132;47.946;10.394;2022-09-09T14:00:16;4.32;;;1.05;;
18013;SDS011;9132;47.946;10.394;2022-09-09T14:02:42;1.60;;;1.00;;
18013;SDS011;9132;47.946;10.394;2022-09-09T14:05:09;1.00;;;0.90;;
18013;SDS011;9132;47.946;10.394;2022-09-09T14:07:36;1.40;;;0.90;;
18013;SDS011;9132;47.946;10.394;2022-09-09T14:10:05;2.88;;;1.10;;
18013;SDS011;9132;47.946;10.394;2022-09-09T14:12:32;2.28;;;0.80;;
18013;SDS011;9132;47.946;10.394;2022-09-09T14:14:58;2.75;;;0.75;;
18013;SDS011;9132;47.946;10.394;2022-09-09T14:17:26;2.15;;;0.70;;
18013;SDS011;9132;47.946;10.394;2022-09-09T14:19:56;1.10;;;0.80;;
18013;SDS011;9132;47.946;10.394;2022-09-09T14:22:22;1.25;;;0.82;;
18013;SDS011;9132;47.946;10.394;2022-09-09T14:24:49;2.33;;;0.80;;
18013;SDS011;9132;47.946;10.394;2022-09-09T14:27:17;2.35;;;0.80;;
18013;SDS011;9132;47.946;10.394;2022-09-09T14:29:43;4.10;;;1.15;;
18013;SDS011;9132;47.946;10.394;2022-09-09T14:32:10;0.93;;;0.73;;
18013;SDS011;9132;47.946;10.394;2022-09-09T14:34:36;1.67;;;0.75;;
18013;SDS011;9132;47.946;10.394;2022-09-09T14:37:03;1.00;;;0.85;;
18013;SDS011;9132;47.946;10.394;2022-09-09T14:39:29;1.88;;;0.70;;
18013;SDS011;9132;47.946;10.394;2022-09-09T14:41:55;2.08;;;0.90;;
18013;SDS011;9132;47.946;10.394;2022-09-09T14:44:24;1.73;;;0.80;;
18013;SDS011;9132;47.946;10.394;2022-09-09T14:46:51;1.50;;;0.77;;
18013;SDS011;9132;47.946;10.394;2022-09-09T14:49:18;1.83;;;0.68;;
18013;SDS011;9132;47.946;10.394;2022-09-09T14:51:44;1.30;;;0.82;;
18013;SDS011;9132;47.946;10.394;2022-09-09T14:54:10;2.25;;;0.70;;
18013;SDS011;9132;47.946;10.394;2022-09-09T14:56:37;2.97;;;0.70;;
18013;SDS011;9132;47.946;10.394;2022-09-09T14:59:03;3.05;;;0.90;;
18013;SDS011;9132;47.946;10.394;2022-09-09T15:01:31;2.55;;;0.70;;
18013;SDS011;9132;47.946;10.394;2022-09-09T15:03:59;1.38;;;0.70;;